sensor_id;sensor_type;location;lat;lon;timestamp;temperature;humidity
34135;DHT22;20410;55.578;12.968;2023-03-31T00:01:57;9.30;99.90
34135;DHT22;20410;55.578;12.968;2023-03-31T00:04:23;9.30;99.90
34135;DHT22;20410;55.578;12.968;2023-03-31T00:06:50;9.30;99.90
34135;DHT22;20410;55.578;12.968;2023-03-31T00:09:19;9.30;99.90
34135;DHT22;20410;55.578;12.968;2023-03-31T00:11:47;9.30;99.90
34135;DHT22;20410;55.578;12.968;2023-03-31T00:14:14;9.30;99.90
34135;DHT22;20410;55.578;12.968;2023-03-31T00:16:40;9.20;99.90
34135;DHT22;20410;55.578;12.968;2023-03-31T00:19:05;9.20;99.90
34135;DHT22;20410;55.578;12.968;2023-03-31T00:21:34;9.20;99.90
34135;DHT22;20410;55.578;12.968;2023-03-31T00:24:09;9.20;99.90
34135;DHT22;20410;55.578;12.968;2023-03-31T00:26:36;9.20;99.90
34135;DHT22;20410;55.578;12.968;2023-03-31T00:29:02;9.20;99.90
34135;DHT22;20410;55.578;12.968;2023-03-31T00:31:28;9.20;99.90
34135;DHT22;20410;55.578;12.968;2023-03-31T00:33:54;9.20;99.90
34135;DHT22;20410;55.578;12.968;2023-03-31T00:36:20;9.20;99.90
34135;DHT22;20410;55.578;12.968;2023-03-31T00:38:52;9.20;99.90
34135;DHT22;20410;55.578;12.968;2023-03-31T00:41:18;9.20;99.90
34135;DHT22;20410;55.578;12.968;2023-03-31T00:44:20;9.10;99.90
34135;DHT22;20410;55.578;12.968;2023-03-31T00:47:17;9.10;99.90
34135;DHT22;20410;55.578;12.968;2023-03-31T00:49:49;9.10;99.90
34135;DHT22;20410;55.578;12.968;2023-03-31T00:52:18;9.10;99.90
34135;DHT22;20410;55.578;12.968;2023-03-31T00:54:55;9.10;99.90
34135;DHT22;20410;55.578;12.968;2023-03-31T00:57:24;9.10;99.90
34135;DHT22;20410;55.578;12.968;2023-03-31T00:59:56;9.10;99.90
34135;DHT22;20410;55.578;12.968;2023-03-31T01:02:23;9.10;99.90
34135;DHT22;20410;55.578;12.968;2023-03-31T01:04:53;9.10;99.90
34135;DHT22;20410;55.578;12.968;2023-03-31T01:09:52;9.10;99.90
34135;DHT22;20410;55.578;12.968;2023-03-31T01:12:21;9.10;99.90
34135;DHT22;20410;55.578;12.968;2023-03-31T01:14:49;9.10;99.90
34135;DHT22;20410;55.578;12.968;2023-03-31T01:17:17;9.00;99.90
34135;DHT22;20410;55.578;12.968;2023-03-31T01:22:36;9.00;99.90
34135;DHT22;20410;55.578;12.968;2023-03-31T01:27:53;9.10;99.90
34135;DHT22;20410;55.578;12.968;2023-03-31T01:43:39;9.00;99.90
34135;DHT22;20410;55.578;12.968;2023-03-31T01:46:22;9.00;99.90
34135;DHT22;20410;55.578;12.968;2023-03-31T01:56:45;9.10;99.90
34135;DHT22;20410;55.578;12.968;2023-03-31T01:59:13;9.10;99.90
34135;DHT22;20410;55.578;12.968;2023-03-31T02:01:58;9.10;99.90
34135;DHT22;20410;55.578;12.968;2023-03-31T02:04:33;9.10;99.90
34135;DHT22;20410;55.578;12.968;2023-03-31T02:07:07;9.10;99.90
34135;DHT22;20410;55.578;12.968;2023-03-31T02:09:40;9.10;99.90
34135;DHT22;20410;55.578;12.968;2023-03-31T02:12:09;9.10;99.90
34135;DHT22;20410;55.578;12.968;2023-03-31T02:14:38;9.10;99.90
34135;DHT22;20410;55.578;12.968;2023-03-31T02:17:06;9.10;99.90
34135;DHT22;20410;55.578;12.968;2023-03-31T02:19:39;9.20;99.90
34135;DHT22;20410;55.578;12.968;2023-03-31T02:22:08;9.10;99.90
34135;DHT22;20410;55.578;12.968;2023-03-31T02:24:35;9.20;99.90
34135;DHT22;20410;55.578;12.968;2023-03-31T02:27:10;9.20;99.90
34135;DHT22;20410;55.578;12.968;2023-03-31T02:29:37;9.20;99.90
34135;DHT22;20410;55.578;12.968;2023-03-31T02:32:09;9.20;99.90
34135;DHT22;20410;55.578;12.968;2023-03-31T02:34:36;9.20;99.90
34135;DHT22;20410;55.578;12.968;2023-03-31T02:37:02;9.20;99.90
34135;DHT22;20410;55.578;12.968;2023-03-31T02:39:34;9.10;99.90
34135;DHT22;20410;55.578;12.968;2023-03-31T02:42:02;9.20;99.90
34135;DHT22;20410;55.578;12.968;2023-03-31T02:44:35;9.20;99.90
34135;DHT22;20410;55.578;12.968;2023-03-31T02:47:03;9.20;99.90
34135;DHT22;20410;55.578;12.968;2023-03-31T02:49:30;9.20;99.90
34135;DHT22;20410;55.578;12.968;2023-03-31T03:00:05;9.20;99.90
34135;DHT22;20410;55.578;12.968;2023-03-31T03:05:30;9.00;99.90
34135;DHT22;20410;55.578;12.968;2023-03-31T03:13:47;9.00;99.90
34135;DHT22;20410;55.578;12.968;2023-03-31T03:16:29;9.00;99.90
34135;DHT22;20410;55.578;12.968;2023-03-31T03:19:04;9.00;99.90
34135;DHT22;20410;55.578;12.968;2023-03-31T03:21:30;8.90;99.90
34135;DHT22;20410;55.578;12.968;2023-03-31T03:23:56;8.90;99.90
34135;DHT22;20410;55.578;12.968;2023-03-31T03:26:22;8.90;99.90
34135;DHT22;20410;55.578;12.968;2023-03-31T03:28:51;8.90;99.90
34135;DHT22;20410;55.578;12.968;2023-03-31T03:31:18;8.90;99.90
34135;DHT22;20410;55.578;12.968;2023-03-31T03:33:43;8.90;99.90
34135;DHT22;20410;55.578;12.968;2023-03-31T03:36:09;8.90;99.90
34135;DHT22;20410;55.578;12.968;2023-03-31T03:38:35;9.00;99.90
34135;DHT22;20410;55.578;12.968;2023-03-31T03:41:01;9.00;99.90
34135;DHT22;20410;55.578;12.968;2023-03-31T03:43:27;9.00;99.90
34135;DHT22;20410;55.578;12.968;2023-03-31T03:45:52;9.00;99.90
34135;DHT22;20410;55.578;12.968;2023-03-31T03:48:18;9.00;99.90
34135;DHT22;20410;55.578;12.968;2023-03-31T03:50:45;9.00;99.90
34135;DHT22;20410;55.578;12.968;2023-03-31T03:53:11;9.00;99.90
34135;DHT22;20410;55.578;12.968;2023-03-31T03:55:37;9.00;99.90
34135;DHT22;20410;55.578;12.968;2023-03-31T03:58:03;9.00;99.90
34135;DHT22;20410;55.578;12.968;2023-03-31T04:00:28;9.00;99.90
34135;DHT22;20410;55.578;12.968;2023-03-31T04:02:54;9.00;99.90
34135;DHT22;20410;55.578;12.968;2023-03-31T04:05:20;9.00;99.90
34135;DHT22;20410;55.578;12.968;2023-03-31T04:07:45;9.00;99.90
34135;DHT22;20410;55.578;12.968;2023-03-31T04:10:11;9.00;99.90
34135;DHT22;20410;55.578;12.968;2023-03-31T04:12:37;9.00;99.90
34135;DHT22;20410;55.578;12.968;2023-03-31T04:15:03;9.00;99.90
34135;DHT22;20410;55.578;12.968;2023-03-31T04:17:28;9.00;99.90
34135;DHT22;20410;55.578;12.968;2023-03-31T04:20:07;9.00;99.90
34135;DHT22;20410;55.578;12.968;2023-03-31T04:22:34;9.00;99.90
34135;DHT22;20410;55.578;12.968;2023-03-31T04:25:09;9.00;99.90
34135;DHT22;20410;55.578;12.968;2023-03-31T04:27:40;9.00;99.90
34135;DHT22;20410;55.578;12.968;2023-03-31T04:30:12;9.00;99.90
34135;DHT22;20410;55.578;12.968;2023-03-31T04:32:48;9.00;99.90
34135;DHT22;20410;55.578;12.968;2023-03-31T04:35:15;9.00;99.90
34135;DHT22;20410;55.578;12.968;2023-03-31T04:37:42;9.00;99.90
34135;DHT22;20410;55.578;12.968;2023-03-31T04:40:08;9.00;99.90
34135;DHT22;20410;55.578;12.968;2023-03-31T04:42:35;9.00;99.90
34135;DHT22;20410;55.578;12.968;2023-03-31T04:45:01;9.10;99.90
34135;DHT22;20410;55.578;12.968;2023-03-31T04:47:27;9.10;99.90
34135;DHT22;20410;55.578;12.968;2023-03-31T04:49:53;9.10;99.90
34135;DHT22;20410;55.578;12.968;2023-03-31T04:52:18;9.20;99.90
34135;DHT22;20410;55.578;12.968;2023-03-31T04:54:44;9.20;99.90
34135;DHT22;20410;55.578;12.968;2023-03-31T04:57:10;9.20;99.90
34135;DHT22;20410;55.578;12.968;2023-03-31T04:59:36;9.20;99.90
34135;DHT22;20410;55.578;12.968;2023-03-31T05:02:01;9.20;99.90
34135;DHT22;20410;55.578;12.968;2023-03-31T05:04:27;9.20;99.90
34135;DHT22;20410;55.578;12.968;2023-03-31T05:06:52;9.20;99.90
34135;DHT22;20410;55.578;12.968;2023-03-31T05:09:18;9.20;95.70
34135;DHT22;20410;55.578;12.968;2023-03-31T05:11:45;9.20;96.70
34135;DHT22;20410;55.578;12.968;2023-03-31T05:14:10;9.30;99.90
34135;DHT22;20410;55.578;12.968;2023-03-31T05:16:36;9.30;99.90
34135;DHT22;20410;55.578;12.968;2023-03-31T05:19:02;9.30;97.90
34135;DHT22;20410;55.578;12.968;2023-03-31T05:21:27;9.30;97.00
34135;DHT22;20410;55.578;12.968;2023-03-31T05:23:55;9.30;93.30
34135;DHT22;20410;55.578;12.968;2023-03-31T05:26:21;9.30;93.00
34135;DHT22;20410;55.578;12.968;2023-03-31T05:28:52;9.30;93.80
34135;DHT22;20410;55.578;12.968;2023-03-31T05:31:18;9.30;90.00
34135;DHT22;20410;55.578;12.968;2023-03-31T05:33:44;9.30;92.90
34135;DHT22;20410;55.578;12.968;2023-03-31T05:36:11;9.30;94.00
34135;DHT22;20410;55.578;12.968;2023-03-31T05:38:38;9.30;92.50
34135;DHT22;20410;55.578;12.968;2023-03-31T05:41:04;9.30;93.40
34135;DHT22;20410;55.578;12.968;2023-03-31T05:43:30;9.30;94.30
34135;DHT22;20410;55.578;12.968;2023-03-31T05:45:56;9.30;95.20
34135;DHT22;20410;55.578;12.968;2023-03-31T05:48:22;9.30;94.00
34135;DHT22;20410;55.578;12.968;2023-03-31T05:50:47;9.30;95.00
34135;DHT22;20410;55.578;12.968;2023-03-31T05:53:13;9.30;94.00
34135;DHT22;20410;55.578;12.968;2023-03-31T05:55:38;9.30;93.40
34135;DHT22;20410;55.578;12.968;2023-03-31T05:58:05;9.30;92.10
34135;DHT22;20410;55.578;12.968;2023-03-31T06:00:31;9.30;92.60
34135;DHT22;20410;55.578;12.968;2023-03-31T06:02:57;9.30;91.80
34135;DHT22;20410;55.578;12.968;2023-03-31T06:05:23;9.30;92.60
34135;DHT22;20410;55.578;12.968;2023-03-31T06:07:52;9.30;97.00
34135;DHT22;20410;55.578;12.968;2023-03-31T06:10:18;9.20;96.80
34135;DHT22;20410;55.578;12.968;2023-03-31T06:12:44;9.30;99.90
34135;DHT22;20410;55.578;12.968;2023-03-31T06:15:10;9.30;99.90
34135;DHT22;20410;55.578;12.968;2023-03-31T06:17:36;9.30;99.90
34135;DHT22;20410;55.578;12.968;2023-03-31T06:20:01;9.40;99.90
34135;DHT22;20410;55.578;12.968;2023-03-31T06:22:28;9.40;99.00
34135;DHT22;20410;55.578;12.968;2023-03-31T06:24:54;9.40;94.50
34135;DHT22;20410;55.578;12.968;2023-03-31T06:27:19;9.40;92.30
34135;DHT22;20410;55.578;12.968;2023-03-31T06:29:45;9.40;97.90
34135;DHT22;20410;55.578;12.968;2023-03-31T06:32:11;9.50;97.90
34135;DHT22;20410;55.578;12.968;2023-03-31T06:34:36;9.50;90.70
34135;DHT22;20410;55.578;12.968;2023-03-31T06:37:02;9.50;95.40
34135;DHT22;20410;55.578;12.968;2023-03-31T06:39:27;9.50;95.60
34135;DHT22;20410;55.578;12.968;2023-03-31T06:41:53;9.50;90.70
34135;DHT22;20410;55.578;12.968;2023-03-31T06:44:18;9.50;92.80
34135;DHT22;20410;55.578;12.968;2023-03-31T06:46:47;9.50;96.10
34135;DHT22;20410;55.578;12.968;2023-03-31T06:49:13;9.50;98.80
34135;DHT22;20410;55.578;12.968;2023-03-31T06:51:39;9.60;99.40
34135;DHT22;20410;55.578;12.968;2023-03-31T06:54:04;9.60;99.10
34135;DHT22;20410;55.578;12.968;2023-03-31T06:56:30;9.70;95.50
34135;DHT22;20410;55.578;12.968;2023-03-31T06:58:56;9.70;94.70
34135;DHT22;20410;55.578;12.968;2023-03-31T07:01:21;9.70;96.20
34135;DHT22;20410;55.578;12.968;2023-03-31T07:03:47;9.80;93.50
34135;DHT22;20410;55.578;12.968;2023-03-31T07:06:13;9.80;94.20
34135;DHT22;20410;55.578;12.968;2023-03-31T07:08:38;9.80;92.40
34135;DHT22;20410;55.578;12.968;2023-03-31T07:11:04;9.90;98.10
34135;DHT22;20410;55.578;12.968;2023-03-31T07:13:30;9.80;94.60
34135;DHT22;20410;55.578;12.968;2023-03-31T07:15:55;9.90;99.90
34135;DHT22;20410;55.578;12.968;2023-03-31T07:18:22;9.90;98.50
34135;DHT22;20410;55.578;12.968;2023-03-31T07:20:56;10.00;99.90
34135;DHT22;20410;55.578;12.968;2023-03-31T07:23:22;10.10;99.90
34135;DHT22;20410;55.578;12.968;2023-03-31T07:25:48;10.10;99.90
34135;DHT22;20410;55.578;12.968;2023-03-31T07:28:14;10.10;99.90
34135;DHT22;20410;55.578;12.968;2023-03-31T07:30:40;10.20;99.90
34135;DHT22;20410;55.578;12.968;2023-03-31T07:33:06;10.30;99.90
34135;DHT22;20410;55.578;12.968;2023-03-31T07:35:32;10.40;99.90
34135;DHT22;20410;55.578;12.968;2023-03-31T07:37:58;10.50;99.90
34135;DHT22;20410;55.578;12.968;2023-03-31T07:40:25;10.60;99.90
34135;DHT22;20410;55.578;12.968;2023-03-31T07:42:51;10.60;96.10
34135;DHT22;20410;55.578;12.968;2023-03-31T07:45:19;10.60;97.80
34135;DHT22;20410;55.578;12.968;2023-03-31T07:47:45;10.60;99.90
34135;DHT22;20410;55.578;12.968;2023-03-31T07:50:12;10.70;99.90
34135;DHT22;20410;55.578;12.968;2023-03-31T07:52:38;10.70;95.40
34135;DHT22;20410;55.578;12.968;2023-03-31T07:55:05;10.70;88.10
34135;DHT22;20410;55.578;12.968;2023-03-31T07:57:32;10.60;90.00
34135;DHT22;20410;55.578;12.968;2023-03-31T07:59:57;10.60;89.80
34135;DHT22;20410;55.578;12.968;2023-03-31T08:02:23;10.60;96.90
34135;DHT22;20410;55.578;12.968;2023-03-31T08:04:49;10.60;97.80
34135;DHT22;20410;55.578;12.968;2023-03-31T08:07:15;10.60;99.10
34135;DHT22;20410;55.578;12.968;2023-03-31T08:09:45;10.60;95.30
34135;DHT22;20410;55.578;12.968;2023-03-31T08:12:12;10.60;97.00
34135;DHT22;20410;55.578;12.968;2023-03-31T08:14:38;10.70;99.90
34135;DHT22;20410;55.578;12.968;2023-03-31T08:17:04;10.70;97.30
34135;DHT22;20410;55.578;12.968;2023-03-31T08:19:30;10.70;99.90
34135;DHT22;20410;55.578;12.968;2023-03-31T08:21:55;10.70;99.90
34135;DHT22;20410;55.578;12.968;2023-03-31T08:24:21;10.80;99.90
34135;DHT22;20410;55.578;12.968;2023-03-31T08:26:47;10.80;97.30
34135;DHT22;20410;55.578;12.968;2023-03-31T08:29:13;10.80;90.90
34135;DHT22;20410;55.578;12.968;2023-03-31T08:31:38;10.70;91.80
34135;DHT22;20410;55.578;12.968;2023-03-31T08:34:04;10.70;92.80
34135;DHT22;20410;55.578;12.968;2023-03-31T08:36:31;10.70;94.00
34135;DHT22;20410;55.578;12.968;2023-03-31T08:38:57;10.70;98.70
34135;DHT22;20410;55.578;12.968;2023-03-31T08:41:30;10.70;99.90
34135;DHT22;20410;55.578;12.968;2023-03-31T08:43:59;10.70;96.90
34135;DHT22;20410;55.578;12.968;2023-03-31T08:46:28;10.80;97.70
34135;DHT22;20410;55.578;12.968;2023-03-31T08:48:57;10.80;99.90
34135;DHT22;20410;55.578;12.968;2023-03-31T08:51:37;10.90;99.90
34135;DHT22;20410;55.578;12.968;2023-03-31T08:54:10;10.90;97.40
34135;DHT22;20410;55.578;12.968;2023-03-31T08:56:40;11.00;99.90
34135;DHT22;20410;55.578;12.968;2023-03-31T08:59:17;11.10;99.90
34135;DHT22;20410;55.578;12.968;2023-03-31T09:01:52;11.10;97.70
34135;DHT22;20410;55.578;12.968;2023-03-31T09:12:16;11.30;95.50
34135;DHT22;20410;55.578;12.968;2023-03-31T09:14:59;11.40;99.70
34135;DHT22;20410;55.578;12.968;2023-03-31T09:17:29;11.40;98.90
34135;DHT22;20410;55.578;12.968;2023-03-31T09:20:11;11.40;99.90
34135;DHT22;20410;55.578;12.968;2023-03-31T09:22:51;11.50;99.90
34135;DHT22;20410;55.578;12.968;2023-03-31T09:25:26;11.50;99.10
34135;DHT22;20410;55.578;12.968;2023-03-31T09:27:55;11.70;99.90
34135;DHT22;20410;55.578;12.968;2023-03-31T09:30:26;11.80;99.90
34135;DHT22;20410;55.578;12.968;2023-03-31T09:33:03;12.00;99.90
34135;DHT22;20410;55.578;12.968;2023-03-31T09:35:34;12.10;94.50
34135;DHT22;20410;55.578;12.968;2023-03-31T09:38:00;12.40;99.90
34135;DHT22;20410;55.578;12.968;2023-03-31T09:40:27;12.60;99.90
34135;DHT22;20410;55.578;12.968;2023-03-31T09:43:10;12.80;99.90
34135;DHT22;20410;55.578;12.968;2023-03-31T09:45:40;12.90;85.00
34135;DHT22;20410;55.578;12.968;2023-03-31T09:48:29;12.80;42.80
34135;DHT22;20410;55.578;12.968;2023-03-31T09:51:01;12.80;45.40
34135;DHT22;20410;55.578;12.968;2023-03-31T09:56:04;13.00;56.30
34135;DHT22;20410;55.578;12.968;2023-03-31T09:58:45;13.00;23.10
34135;DHT22;20410;55.578;12.968;2023-03-31T10:01:13;13.10;18.40
34135;DHT22;20410;55.578;12.968;2023-03-31T10:03:52;13.20;24.30
34135;DHT22;20410;55.578;12.968;2023-03-31T10:06:20;13.20;20.60
34135;DHT22;20410;55.578;12.968;2023-03-31T10:08:55;13.40;23.10
34135;DHT22;20410;55.578;12.968;2023-03-31T10:11:22;13.40;1.00
34135;DHT22;20410;55.578;12.968;2023-03-31T10:14:10;13.60;6.00
34135;DHT22;20410;55.578;12.968;2023-03-31T10:16:44;13.70;1.00
34135;DHT22;20410;55.578;12.968;2023-03-31T10:19:18;13.90;1.00
34135;DHT22;20410;55.578;12.968;2023-03-31T10:21:47;14.00;1.00
34135;DHT22;20410;55.578;12.968;2023-03-31T10:24:18;14.10;1.00
34135;DHT22;20410;55.578;12.968;2023-03-31T10:26:47;14.10;1.00
34135;DHT22;20410;55.578;12.968;2023-03-31T10:29:18;14.40;1.00
34135;DHT22;20410;55.578;12.968;2023-03-31T10:31:46;14.50;1.00
34135;DHT22;20410;55.578;12.968;2023-03-31T10:34:14;14.70;1.00
34135;DHT22;20410;55.578;12.968;2023-03-31T10:36:46;15.00;1.00
34135;DHT22;20410;55.578;12.968;2023-03-31T10:39:15;15.10;1.00
34135;DHT22;20410;55.578;12.968;2023-03-31T10:41:41;15.10;1.00
34135;DHT22;20410;55.578;12.968;2023-03-31T10:44:37;14.90;1.00
34135;DHT22;20410;55.578;12.968;2023-03-31T10:47:18;14.90;1.00
34135;DHT22;20410;55.578;12.968;2023-03-31T10:49:44;14.70;1.00
34135;DHT22;20410;55.578;12.968;2023-03-31T10:52:22;14.60;1.00
34135;DHT22;20410;55.578;12.968;2023-03-31T10:54:53;14.50;1.00
34135;DHT22;20410;55.578;12.968;2023-03-31T10:57:28;14.60;1.00
34135;DHT22;20410;55.578;12.968;2023-03-31T11:00:11;14.60;1.00
34135;DHT22;20410;55.578;12.968;2023-03-31T11:08:24;14.60;1.00
34135;DHT22;20410;55.578;12.968;2023-03-31T11:23:43;14.80;1.00
34135;DHT22;20410;55.578;12.968;2023-03-31T11:35:05;14.80;1.00
34135;DHT22;20410;55.578;12.968;2023-03-31T11:37:52;14.90;1.00
34135;DHT22;20410;55.578;12.968;2023-03-31T11:45:37;14.90;1.00
34135;DHT22;20410;55.578;12.968;2023-03-31T11:48:09;14.90;1.00
34135;DHT22;20410;55.578;12.968;2023-03-31T11:50:42;14.70;1.00
34135;DHT22;20410;55.578;12.968;2023-03-31T11:53:16;14.60;1.00
34135;DHT22;20410;55.578;12.968;2023-03-31T11:55:44;14.60;1.00
34135;DHT22;20410;55.578;12.968;2023-03-31T11:58:33;14.60;1.00
34135;DHT22;20410;55.578;12.968;2023-03-31T12:01:19;14.50;1.00
34135;DHT22;20410;55.578;12.968;2023-03-31T12:06:44;14.30;1.00
34135;DHT22;20410;55.578;12.968;2023-03-31T12:09:22;14.30;1.00
34135;DHT22;20410;55.578;12.968;2023-03-31T12:12:06;14.20;1.00
34135;DHT22;20410;55.578;12.968;2023-03-31T12:15:04;14.20;1.00
34135;DHT22;20410;55.578;12.968;2023-03-31T12:17:31;14.20;1.00
34135;DHT22;20410;55.578;12.968;2023-03-31T12:20:03;14.10;1.00
34135;DHT22;20410;55.578;12.968;2023-03-31T12:22:46;14.10;1.00
34135;DHT22;20410;55.578;12.968;2023-03-31T12:25:19;14.10;1.00
34135;DHT22;20410;55.578;12.968;2023-03-31T12:27:51;14.10;1.00
34135;DHT22;20410;55.578;12.968;2023-03-31T12:30:37;14.00;1.00
34135;DHT22;20410;55.578;12.968;2023-03-31T12:33:18;13.90;1.00
34135;DHT22;20410;55.578;12.968;2023-03-31T12:38:45;13.90;1.00
34135;DHT22;20410;55.578;12.968;2023-03-31T12:47:23;13.80;1.00
34135;DHT22;20410;55.578;12.968;2023-03-31T12:55:11;13.90;1.00
34135;DHT22;20410;55.578;12.968;2023-03-31T12:57:42;14.00;1.00
34135;DHT22;20410;55.578;12.968;2023-03-31T13:02:36;13.90;1.00
34135;DHT22;20410;55.578;12.968;2023-03-31T13:08:11;13.70;1.00
34135;DHT22;20410;55.578;12.968;2023-03-31T13:10:56;13.60;5.60
34135;DHT22;20410;55.578;12.968;2023-03-31T13:13:23;13.60;3.50
34135;DHT22;20410;55.578;12.968;2023-03-31T13:15:55;13.60;1.00
34135;DHT22;20410;55.578;12.968;2023-03-31T13:18:21;13.60;1.00
34135;DHT22;20410;55.578;12.968;2023-03-31T13:20:58;13.60;1.00
34135;DHT22;20410;55.578;12.968;2023-03-31T13:23:24;13.60;1.00
34135;DHT22;20410;55.578;12.968;2023-03-31T13:26:00;13.60;1.00
34135;DHT22;20410;55.578;12.968;2023-03-31T13:28:33;13.50;1.00
34135;DHT22;20410;55.578;12.968;2023-03-31T13:31:04;13.60;1.00
34135;DHT22;20410;55.578;12.968;2023-03-31T13:41:41;13.70;1.00
34135;DHT22;20410;55.578;12.968;2023-03-31T13:56:31;13.90;1.00
34135;DHT22;20410;55.578;12.968;2023-03-31T14:07:07;14.00;1.00
34135;DHT22;20410;55.578;12.968;2023-03-31T14:09:35;14.00;1.00
34135;DHT22;20410;55.578;12.968;2023-03-31T14:12:19;14.00;1.00
34135;DHT22;20410;55.578;12.968;2023-03-31T14:14:44;14.10;1.00
34135;DHT22;20410;55.578;12.968;2023-03-31T14:17:11;14.00;1.00
34135;DHT22;20410;55.578;12.968;2023-03-31T14:22:47;14.00;1.00
34135;DHT22;20410;55.578;12.968;2023-03-31T14:25:40;14.10;1.00
34135;DHT22;20410;55.578;12.968;2023-03-31T14:28:32;14.20;1.00
34135;DHT22;20410;55.578;12.968;2023-03-31T14:31:18;13.90;1.00
34135;DHT22;20410;55.578;12.968;2023-03-31T14:37:17;13.80;1.00
34135;DHT22;20410;55.578;12.968;2023-03-31T14:39:40;13.90;1.00
34135;DHT22;20410;55.578;12.968;2023-03-31T14:42:20;13.90;1.00
34135;DHT22;20410;55.578;12.968;2023-03-31T14:44:46;13.90;1.00
34135;DHT22;20410;55.578;12.968;2023-03-31T14:47:14;13.90;1.00
34135;DHT22;20410;55.578;12.968;2023-03-31T14:49:40;13.90;1.00
34135;DHT22;20410;55.578;12.968;2023-03-31T14:52:20;14.00;1.00
34135;DHT22;20410;55.578;12.968;2023-03-31T14:54:48;14.10;1.00
34135;DHT22;20410;55.578;12.968;2023-03-31T14:57:17;13.90;1.00
34135;DHT22;20410;55.578;12.968;2023-03-31T14:59:47;13.80;1.00
34135;DHT22;20410;55.578;12.968;2023-03-31T15:02:18;13.60;1.00
34135;DHT22;20410;55.578;12.968;2023-03-31T15:04:48;13.40;1.00
34135;DHT22;20410;55.578;12.968;2023-03-31T15:07:14;13.50;1.00
34135;DHT22;20410;55.578;12.968;2023-03-31T15:09:48;13.70;1.00
34135;DHT22;20410;55.578;12.968;2023-03-31T15:12:17;13.80;1.00
34135;DHT22;20410;55.578;12.968;2023-03-31T15:14:46;13.80;1.00
34135;DHT22;20410;55.578;12.968;2023-03-31T15:17:21;13.50;1.00
34135;DHT22;20410;55.578;12.968;2023-03-31T15:19:53;13.10;1.00
34135;DHT22;20410;55.578;12.968;2023-03-31T15:22:21;12.30;1.00
34135;DHT22;20410;55.578;12.968;2023-03-31T15:24:48;11.70;1.00
34135;DHT22;20410;55.578;12.968;2023-03-31T15:27:29;11.30;1.00
34135;DHT22;20410;55.578;12.968;2023-03-31T15:29:58;10.90;1.00
34135;DHT22;20410;55.578;12.968;2023-03-31T15:32:29;10.60;30.90
34135;DHT22;20410;55.578;12.968;2023-03-31T15:34:56;10.50;31.70
34135;DHT22;20410;55.578;12.968;2023-03-31T15:37:25;10.40;26.40
34135;DHT22;20410;55.578;12.968;2023-03-31T15:39:58;10.30;30.40
34135;DHT22;20410;55.578;12.968;2023-03-31T15:42:26;10.30;29.00
34135;DHT22;20410;55.578;12.968;2023-03-31T15:45:15;10.10;28.20
34135;DHT22;20410;55.578;12.968;2023-03-31T15:47:50;9.90;53.40
34135;DHT22;20410;55.578;12.968;2023-03-31T15:50:16;9.80;34.50
34135;DHT22;20410;55.578;12.968;2023-03-31T15:52:51;9.80;51.70
34135;DHT22;20410;55.578;12.968;2023-03-31T15:55:40;9.80;40.00
34135;DHT22;20410;55.578;12.968;2023-03-31T15:58:10;9.30;43.10
34135;DHT22;20410;55.578;12.968;2023-03-31T16:00:51;9.10;76.70
34135;DHT22;20410;55.578;12.968;2023-03-31T16:03:28;8.90;87.00
34135;DHT22;20410;55.578;12.968;2023-03-31T16:06:02;8.80;96.60
34135;DHT22;20410;55.578;12.968;2023-03-31T16:08:41;8.70;99.90
34135;DHT22;20410;55.578;12.968;2023-03-31T16:11:14;8.30;99.90
34135;DHT22;20410;55.578;12.968;2023-03-31T16:13:45;8.20;99.90
34135;DHT22;20410;55.578;12.968;2023-03-31T16:16:16;8.10;99.90
34135;DHT22;20410;55.578;12.968;2023-03-31T16:18:48;8.10;99.90
34135;DHT22;20410;55.578;12.968;2023-03-31T16:21:20;7.90;99.90
34135;DHT22;20410;55.578;12.968;2023-03-31T16:23:53;8.00;99.90
34135;DHT22;20410;55.578;12.968;2023-03-31T16:26:24;7.90;99.90
34135;DHT22;20410;55.578;12.968;2023-03-31T16:28:53;8.10;99.90
34135;DHT22;20410;55.578;12.968;2023-03-31T16:31:39;8.00;99.90
34135;DHT22;20410;55.578;12.968;2023-03-31T16:34:11;7.90;99.90
34135;DHT22;20410;55.578;12.968;2023-03-31T16:36:37;7.70;99.90
34135;DHT22;20410;55.578;12.968;2023-03-31T16:39:04;7.60;99.90
34135;DHT22;20410;55.578;12.968;2023-03-31T16:41:32;7.70;99.90
34135;DHT22;20410;55.578;12.968;2023-03-31T16:43:58;7.70;99.90
34135;DHT22;20410;55.578;12.968;2023-03-31T16:46:24;7.60;99.90
34135;DHT22;20410;55.578;12.968;2023-03-31T16:48:50;7.60;99.90
34135;DHT22;20410;55.578;12.968;2023-03-31T16:51:16;7.50;99.90
34135;DHT22;20410;55.578;12.968;2023-03-31T16:53:42;7.50;99.90
34135;DHT22;20410;55.578;12.968;2023-03-31T16:56:08;7.60;99.90
34135;DHT22;20410;55.578;12.968;2023-03-31T16:58:35;7.60;99.90
34135;DHT22;20410;55.578;12.968;2023-03-31T17:01:02;7.50;99.90
34135;DHT22;20410;55.578;12.968;2023-03-31T17:03:28;7.40;99.90
34135;DHT22;20410;55.578;12.968;2023-03-31T17:05:55;7.30;99.90
34135;DHT22;20410;55.578;12.968;2023-03-31T17:08:23;7.30;99.90
34135;DHT22;20410;55.578;12.968;2023-03-31T17:11:10;7.20;99.90
34135;DHT22;20410;55.578;12.968;2023-03-31T17:13:37;7.20;99.90
34135;DHT22;20410;55.578;12.968;2023-03-31T17:16:03;7.20;99.90
34135;DHT22;20410;55.578;12.968;2023-03-31T17:18:29;7.10;98.90
34135;DHT22;20410;55.578;12.968;2023-03-31T17:21:05;6.90;96.90
34135;DHT22;20410;55.578;12.968;2023-03-31T17:23:32;6.90;99.90
34135;DHT22;20410;55.578;12.968;2023-03-31T17:25:58;6.80;99.90
34135;DHT22;20410;55.578;12.968;2023-03-31T17:28:24;6.80;99.90
34135;DHT22;20410;55.578;12.968;2023-03-31T17:30:49;6.70;99.00
34135;DHT22;20410;55.578;12.968;2023-03-31T17:33:15;6.70;99.90
34135;DHT22;20410;55.578;12.968;2023-03-31T17:35:42;6.70;99.90
34135;DHT22;20410;55.578;12.968;2023-03-31T17:38:08;6.70;99.90
34135;DHT22;20410;55.578;12.968;2023-03-31T17:40:35;6.70;99.90
34135;DHT22;20410;55.578;12.968;2023-03-31T17:43:01;6.70;99.90
34135;DHT22;20410;55.578;12.968;2023-03-31T17:45:30;6.70;94.10
34135;DHT22;20410;55.578;12.968;2023-03-31T17:47:57;6.70;77.80
34135;DHT22;20410;55.578;12.968;2023-03-31T17:50:24;6.60;74.80
34135;DHT22;20410;55.578;12.968;2023-03-31T17:52:49;6.60;74.40
34135;DHT22;20410;55.578;12.968;2023-03-31T17:55:16;6.60;78.80
34135;DHT22;20410;55.578;12.968;2023-03-31T17:57:42;6.50;68.80
34135;DHT22;20410;55.578;12.968;2023-03-31T18:00:08;6.50;76.40
34135;DHT22;20410;55.578;12.968;2023-03-31T18:02:38;6.40;61.70
34135;DHT22;20410;55.578;12.968;2023-03-31T18:05:06;6.50;75.90
34135;DHT22;20410;55.578;12.968;2023-03-31T18:07:33;6.50;72.80
34135;DHT22;20410;55.578;12.968;2023-03-31T18:09:59;6.30;76.80
34135;DHT22;20410;55.578;12.968;2023-03-31T18:12:25;6.30;81.10